createdAt,value
2023-05-21T00:00:12.236Z,14.13
2023-05-21T00:02:41.105Z,12.68
2023-05-21T00:05:15.594Z,14.45
2023-05-21T00:07:44.167Z,22.40
2023-05-21T00:10:15.856Z,15.98
2023-05-21T00:12:46.526Z,16.92
2023-05-21T00:15:14.644Z,15.13
2023-05-21T00:17:43.276Z,14.50
2023-05-21T00:20:12.850Z,14.73
2023-05-21T00:22:42.436Z,14.38
2023-05-21T00:25:11.630Z,16.65
2023-05-21T00:27:41.189Z,15.13
2023-05-21T00:30:09.820Z,15.15
2023-05-21T00:32:37.957Z,15.80
2023-05-21T00:35:06.822Z,15.43
2023-05-21T00:37:35.065Z,17.58
2023-05-21T00:40:05.242Z,16.42
2023-05-21T00:42:33.724Z,16.42
2023-05-21T00:45:03.870Z,17.40
2023-05-21T00:47:32.399Z,19.88
2023-05-21T00:50:01.066Z,16.50
2023-05-21T00:52:29.160Z,19.85
2023-05-21T00:54:57.277Z,15.20
2023-05-21T00:57:28.006Z,19.27
2023-05-21T00:59:56.440Z,19.48
2023-05-21T01:02:26.121Z,18.55
2023-05-21T01:04:56.246Z,17.40
2023-05-21T01:07:24.401Z,18.73
2023-05-21T01:09:54.166Z,19.63
2023-05-21T01:12:24.238Z,19.17
2023-05-21T01:14:53.275Z,16.85
2023-05-21T01:17:24.349Z,17.15
2023-05-21T01:19:54.750Z,16.50
2023-05-21T01:22:25.232Z,17.90
2023-05-21T01:24:56.132Z,17.33
2023-05-21T01:27:24.250Z,16.33
2023-05-21T01:29:52.261Z,17.50
2023-05-21T01:32:27.958Z,17.95
2023-05-21T01:35:01.826Z,15.85
2023-05-21T01:37:33.756Z,19.73
2023-05-21T01:40:09.966Z,16.65
2023-05-21T01:42:40.292Z,17.92
2023-05-21T01:45:09.615Z,15.73
2023-05-21T01:47:38.538Z,18.38
2023-05-21T01:50:07.682Z,15.93
2023-05-21T01:52:35.891Z,15.32
2023-05-21T01:55:05.703Z,21.20
2023-05-21T01:57:33.789Z,16.25
2023-05-21T02:00:02.023Z,19.17
2023-05-21T02:02:30.219Z,15.65
2023-05-21T02:04:58.261Z,15.20
2023-05-21T02:07:28.900Z,18.58
2023-05-21T02:09:57.013Z,17.02
2023-05-21T02:12:28.343Z,20.95
2023-05-21T02:14:57.612Z,21.15
2023-05-21T02:17:26.187Z,18.67
2023-05-21T02:19:54.266Z,16.50
2023-05-21T02:22:22.298Z,20.48
2023-05-21T02:24:50.384Z,19.48
2023-05-21T02:27:18.538Z,18.33
2023-05-21T02:29:47.943Z,20.95
2023-05-21T02:32:16.916Z,21.27
2023-05-21T02:34:47.258Z,22.58
2023-05-21T02:37:15.308Z,23.55
2023-05-21T02:39:43.289Z,21.58
2023-05-21T02:42:11.304Z,20.92
2023-05-21T02:44:39.284Z,23.80
2023-05-21T02:47:10.374Z,22.73
2023-05-21T02:49:38.356Z,21.98
2023-05-21T02:52:06.804Z,23.08
2023-05-21T02:54:34.822Z,22.83
2023-05-21T02:57:02.843Z,22.83
2023-05-21T02:59:30.929Z,21.73
2023-05-21T03:01:58.980Z,21.73
2023-05-21T03:04:29.130Z,20.38
2023-05-21T03:06:58.567Z,20.90
2023-05-21T03:09:26.605Z,22.25
2023-05-21T03:11:54.683Z,22.02
2023-05-21T03:14:23.036Z,24.42
2023-05-21T03:16:51.501Z,21.88
2023-05-21T03:19:20.851Z,20.50
2023-05-21T03:21:50.590Z,20.70
2023-05-21T03:24:18.701Z,20.83
2023-05-21T03:26:48.196Z,22.63
2023-05-21T03:29:16.390Z,25.83
2023-05-21T03:31:44.569Z,24.60
2023-05-21T03:34:12.581Z,23.05
2023-05-21T03:36:40.839Z,23.55
2023-05-21T03:39:10.587Z,24.88
2023-05-21T03:41:38.650Z,26.33
2023-05-21T03:44:06.953Z,22.15
2023-05-21T03:46:34.932Z,24.17
2023-05-21T03:49:02.983Z,23.60
2023-05-21T03:51:31.742Z,24.83
2023-05-21T03:54:00.218Z,25.13
2023-05-21T03:56:29.642Z,24.05
2023-05-21T03:58:57.580Z,23.85
2023-05-21T04:01:25.631Z,21.73
2023-05-21T04:03:53.980Z,23.50
2023-05-21T04:06:22.790Z,23.45
2023-05-21T04:08:51.410Z,21.88
2023-05-21T04:11:19.415Z,23.73
2023-05-21T04:13:49.122Z,23.23
2023-05-21T04:16:19.365Z,20.80
2023-05-21T04:18:48.046Z,24.10
2023-05-21T04:21:16.324Z,22.15
2023-05-21T04:23:44.436Z,25.98
2023-05-21T04:26:12.813Z,23.60
2023-05-21T04:28:42.011Z,23.27
2023-05-21T04:31:13.761Z,24.65
2023-05-21T04:33:45.905Z,25.77
2023-05-21T04:36:17.363Z,23.13
2023-05-21T04:38:45.793Z,23.95
2023-05-21T04:41:15.088Z,24.15
2023-05-21T04:43:44.231Z,24.33
2023-05-21T04:46:14.020Z,26.88
2023-05-21T04:48:42.280Z,27.25
2023-05-21T04:51:10.316Z,25.77
2023-05-21T04:53:38.828Z,24.20
2023-05-21T04:56:07.365Z,27.77
2023-05-21T04:58:35.381Z,24.80
2023-05-21T05:01:04.222Z,24.63
2023-05-21T05:03:33.737Z,23.73
2023-05-21T05:06:04.301Z,23.85
2023-05-21T05:08:32.368Z,25.33
2023-05-21T05:11:00.384Z,25.20
2023-05-21T05:13:28.322Z,25.08
2023-05-21T05:15:57.490Z,23.98
2023-05-21T05:18:25.583Z,24.90
2023-05-21T05:20:54.953Z,25.50
2023-05-21T05:23:22.932Z,22.30
2023-05-21T05:25:50.888Z,21.83
2023-05-21T05:28:18.919Z,24.00
2023-05-21T05:30:47.076Z,22.83
2023-05-21T05:33:15.175Z,21.70
2023-05-21T05:35:43.195Z,23.25
2023-05-21T05:38:13.595Z,22.17
2023-05-21T05:40:41.571Z,23.63
2023-05-21T05:43:09.740Z,23.42
2023-05-21T05:45:37.989Z,25.40
2023-05-21T05:48:06.641Z,22.40
2023-05-21T05:50:34.757Z,22.23
2023-05-21T05:53:02.761Z,22.60
2023-05-21T05:55:32.190Z,20.35
2023-05-21T05:58:00.283Z,19.20
2023-05-21T06:00:28.349Z,20.15
2023-05-21T06:02:56.444Z,19.80
2023-05-21T06:05:24.609Z,19.83
2023-05-21T06:07:52.646Z,17.77
2023-05-21T06:10:21.568Z,17.42
2023-05-21T06:12:50.908Z,19.67
2023-05-21T06:15:19.489Z,17.75
2023-05-21T06:17:47.531Z,17.42
2023-05-21T06:20:16.444Z,21.98
2023-05-21T06:22:44.545Z,21.25
2023-05-21T06:25:12.528Z,22.42
2023-05-21T06:27:40.565Z,21.13
2023-05-21T06:30:10.735Z,17.90
2023-05-21T06:32:38.795Z,16.48
2023-05-21T06:35:11.020Z,20.25
2023-05-21T06:37:39.063Z,19.67
2023-05-21T06:40:08.649Z,16.90
2023-05-21T06:42:36.649Z,18.63
2023-05-21T06:45:05.062Z,17.40
2023-05-21T06:47:34.473Z,17.80
2023-05-21T06:50:02.550Z,17.63
2023-05-21T06:52:31.684Z,16.60
2023-05-21T06:54:59.831Z,16.73
2023-05-21T06:57:27.855Z,19.25
2023-05-21T06:59:55.839Z,18.77
2023-05-21T07:02:23.998Z,18.42
2023-05-21T07:04:55.662Z,16.45
2023-05-21T07:07:23.853Z,19.40
2023-05-21T07:09:51.925Z,15.50
2023-05-21T07:12:19.958Z,13.80
2023-05-21T07:14:48.013Z,13.85
2023-05-21T07:17:16.033Z,13.27
2023-05-21T07:19:44.121Z,13.93
2023-05-21T07:22:13.708Z,14.27
2023-05-21T07:24:41.720Z,16.02
2023-05-21T07:27:24.658Z,13.00
2023-05-21T07:29:53.950Z,13.55
2023-05-21T07:32:22.027Z,15.88
2023-05-21T07:34:51.558Z,12.98
2023-05-21T07:37:22.275Z,12.63
2023-05-21T07:39:50.371Z,16.27
2023-05-21T07:42:18.707Z,12.65
2023-05-21T07:44:46.688Z,14.00
2023-05-21T07:47:14.669Z,13.80
2023-05-21T07:49:42.731Z,14.68
2023-05-21T07:52:10.833Z,14.45
2023-05-21T07:54:40.242Z,14.63
2023-05-21T07:57:08.299Z,14.98
2023-05-21T07:59:36.277Z,13.55
2023-05-21T08:02:04.462Z,14.70
2023-05-21T08:04:32.629Z,15.50
2023-05-21T08:07:00.728Z,16.05
2023-05-21T08:09:28.730Z,16.45
2023-05-21T08:11:58.191Z,14.52
2023-05-21T08:14:26.233Z,15.05
2023-05-21T08:16:54.223Z,13.75
2023-05-21T08:19:22.286Z,15.55
2023-05-21T08:21:52.718Z,13.85
2023-05-21T08:24:21.043Z,13.50
2023-05-21T08:26:50.476Z,14.75
2023-05-21T08:29:20.175Z,14.20
2023-05-21T08:31:48.198Z,14.07
2023-05-21T08:34:16.435Z,13.55
2023-05-21T08:36:46.125Z,17.15
2023-05-21T08:39:14.129Z,15.57
2023-05-21T08:41:49.375Z,15.00
2023-05-21T08:44:22.079Z,16.48
2023-05-21T08:46:51.889Z,17.10
2023-05-21T08:49:27.074Z,18.77
2023-05-21T08:51:56.302Z,16.88
2023-05-21T08:54:24.958Z,16.40
2023-05-21T08:56:54.515Z,15.02
2023-05-21T08:59:24.669Z,17.33
2023-05-21T09:01:53.884Z,17.38
2023-05-21T09:04:22.522Z,14.82
2023-05-21T09:06:52.211Z,16.45
2023-05-21T09:09:27.260Z,16.38
2023-05-21T09:11:55.584Z,14.85
2023-05-21T09:14:25.599Z,15.75
2023-05-21T09:16:53.662Z,14.80
2023-05-21T09:19:22.159Z,14.82
2023-05-21T09:21:52.461Z,18.65
2023-05-21T09:24:23.668Z,16.92
2023-05-21T09:26:52.543Z,14.80
2023-05-21T09:29:20.707Z,14.02
2023-05-21T09:31:51.467Z,16.98
2023-05-21T09:34:19.644Z,14.38
2023-05-21T09:36:49.700Z,15.77
2023-05-21T09:39:29.446Z,15.75
2023-05-21T09:41:58.436Z,15.40
2023-05-21T09:44:26.484Z,14.82
2023-05-21T09:46:59.955Z,14.45
2023-05-21T09:49:28.420Z,16.20
2023-05-21T09:51:57.652Z,14.77
2023-05-21T09:54:25.946Z,18.23
2023-05-21T09:56:54.139Z,17.45
2023-05-21T09:59:22.579Z,14.85
2023-05-21T10:01:53.057Z,13.80
2023-05-21T10:04:24.230Z,14.70
2023-05-21T10:06:53.456Z,15.75
2023-05-21T10:09:23.521Z,14.70
2023-05-21T10:11:55.769Z,12.98
2023-05-21T10:14:26.571Z,14.93
2023-05-21T10:16:55.854Z,17.00
2023-05-21T10:19:25.868Z,15.18
2023-05-21T10:21:57.293Z,15.20
2023-05-21T10:24:28.441Z,15.98
2023-05-21T10:27:03.269Z,13.88
2023-05-21T10:29:36.460Z,15.65
2023-05-21T10:32:06.668Z,13.77
2023-05-21T10:34:45.809Z,12.43
2023-05-21T10:37:17.998Z,15.43
2023-05-21T10:39:46.948Z,15.55
2023-05-21T10:42:22.634Z,13.10
2023-05-21T10:45:14.254Z,12.68
2023-05-21T10:48:00.075Z,13.25
2023-05-21T10:50:57.412Z,12.75
2023-05-21T10:53:34.543Z,12.82
2023-05-21T10:56:15.556Z,12.27
2023-05-21T10:58:57.702Z,12.38
2023-05-21T11:01:29.593Z,12.55
2023-05-21T11:03:57.791Z,13.18
2023-05-21T11:06:28.388Z,12.23
2023-05-21T11:08:56.803Z,11.15
2023-05-21T11:11:51.732Z,13.30
2023-05-21T11:14:36.812Z,11.27
2023-05-21T11:17:12.698Z,11.48
2023-05-21T11:19:42.552Z,13.50
2023-05-21T11:22:24.442Z,12.40
2023-05-21T11:24:53.293Z,9.57
2023-05-21T11:27:37.640Z,9.85
2023-05-21T11:30:08.141Z,11.43
2023-05-21T11:32:40.976Z,10.85
2023-05-21T11:35:09.954Z,14.65
2023-05-21T11:37:43.640Z,13.32
2023-05-21T11:40:19.669Z,11.02
2023-05-21T11:42:52.573Z,10.98
2023-05-21T11:45:21.970Z,10.15
2023-05-21T11:47:55.964Z,10.48
2023-05-21T11:50:24.069Z,12.05
2023-05-21T11:52:54.408Z,10.57
2023-05-21T11:55:23.496Z,11.73
2023-05-21T11:57:54.653Z,11.18
2023-05-21T12:00:23.164Z,12.88
2023-05-21T12:02:53.204Z,11.80
2023-05-21T12:05:22.161Z,9.57
2023-05-21T12:07:50.768Z,10.45
2023-05-21T12:10:22.904Z,12.10
2023-05-21T12:12:56.430Z,9.73
2023-05-21T12:15:27.038Z,9.45
2023-05-21T12:17:56.914Z,10.00
2023-05-21T12:20:27.932Z,12.55
2023-05-21T12:22:57.715Z,11.05
2023-05-21T12:25:27.485Z,11.00
2023-05-21T12:27:58.328Z,11.07
2023-05-21T12:30:27.216Z,8.65
2023-05-21T12:32:58.577Z,8.77
2023-05-21T12:35:26.780Z,8.93
2023-05-21T12:37:54.868Z,8.68
2023-05-21T12:40:22.900Z,9.05
2023-05-21T12:42:52.696Z,9.65
2023-05-21T12:45:22.781Z,8.65
2023-05-21T12:47:56.052Z,9.23
2023-05-21T12:50:24.811Z,8.57
2023-05-21T12:52:56.169Z,8.93
2023-05-21T12:55:26.330Z,8.05
2023-05-21T12:58:05.151Z,8.82
2023-05-21T13:00:34.479Z,9.15
2023-05-21T13:03:06.379Z,10.50
2023-05-21T13:05:34.930Z,10.90
2023-05-21T13:08:03.024Z,8.02
2023-05-21T13:10:31.173Z,8.15
2023-05-21T13:12:59.292Z,7.88
2023-05-21T13:15:28.706Z,10.38
2023-05-21T13:17:57.197Z,10.48
2023-05-21T13:20:27.633Z,8.10
2023-05-21T13:22:56.196Z,9.13
2023-05-21T13:25:28.828Z,8.35
2023-05-21T13:27:57.457Z,12.77
2023-05-21T13:30:25.542Z,9.35
2023-05-21T13:32:55.742Z,8.38
2023-05-21T13:35:24.035Z,9.68
2023-05-21T13:37:52.209Z,8.65
2023-05-21T13:40:20.315Z,7.07
2023-05-21T13:42:49.684Z,7.78
2023-05-21T13:45:20.962Z,10.13
2023-05-21T13:47:49.775Z,8.27
2023-05-21T13:50:19.370Z,9.95
2023-05-21T13:52:47.578Z,7.35
2023-05-21T13:55:16.940Z,7.15
2023-05-21T13:57:45.667Z,8.57
2023-05-21T14:00:15.473Z,10.60
2023-05-21T14:02:44.512Z,6.78
2023-05-21T14:05:13.512Z,7.13
2023-05-21T14:07:43.091Z,9.27
2023-05-21T14:10:11.684Z,7.38
2023-05-21T14:12:40.694Z,8.88
2023-05-21T14:15:09.780Z,8.98
2023-05-21T14:17:40.225Z,10.05
2023-05-21T14:20:09.831Z,7.03
2023-05-21T14:22:38.591Z,7.53
2023-05-21T14:25:08.774Z,7.70
2023-05-21T14:27:38.440Z,7.82
2023-05-21T14:30:07.606Z,9.32
2023-05-21T14:32:35.688Z,9.20
2023-05-21T14:35:04.317Z,8.02
2023-05-21T14:37:32.364Z,10.38
2023-05-21T14:40:00.476Z,8.32
2023-05-21T14:42:30.765Z,9.20
2023-05-21T14:44:59.055Z,8.50
2023-05-21T14:47:27.220Z,7.45
2023-05-21T14:49:55.257Z,7.47
2023-05-21T14:52:23.489Z,8.73
2023-05-21T14:54:54.652Z,7.97
2023-05-21T14:57:22.641Z,8.75
2023-05-21T14:59:52.093Z,8.13
2023-05-21T15:02:20.103Z,9.07
2023-05-21T15:04:48.183Z,8.10
2023-05-21T15:07:16.354Z,8.85
2023-05-21T15:09:44.412Z,8.40
2023-05-21T15:12:12.425Z,11.18
2023-05-21T15:14:40.999Z,9.50
2023-05-21T15:17:10.608Z,10.00
2023-05-21T15:19:39.579Z,8.60
2023-05-21T15:22:07.726Z,8.38
2023-05-21T15:24:36.021Z,9.20
2023-05-21T15:27:09.106Z,10.57
2023-05-21T15:29:37.340Z,8.80
2023-05-21T15:32:08.012Z,10.20
2023-05-21T15:34:37.650Z,10.27
2023-05-21T15:37:06.094Z,8.77
2023-05-21T15:39:34.074Z,8.40
2023-05-21T15:42:02.036Z,8.18
2023-05-21T15:44:29.998Z,9.07
2023-05-21T15:46:58.136Z,7.95
2023-05-21T15:49:26.210Z,8.27
2023-05-21T15:51:57.380Z,10.75
2023-05-21T15:54:25.783Z,9.15
2023-05-21T15:56:53.883Z,10.07
2023-05-21T15:59:21.978Z,9.93
2023-05-21T16:01:50.144Z,11.32
2023-05-21T16:04:20.203Z,8.15
2023-05-21T16:06:48.423Z,14.55
2023-05-21T16:09:17.850Z,8.63
2023-05-21T16:11:46.071Z,9.98
2023-05-21T16:14:14.150Z,8.13
2023-05-21T16:16:42.248Z,9.65
2023-05-21T16:19:10.482Z,8.05
2023-05-21T16:21:38.596Z,9.63
2023-05-21T16:24:07.332Z,7.47
2023-05-21T16:26:36.867Z,8.63
2023-05-21T16:29:04.967Z,9.07
2023-05-21T16:31:33.017Z,9.07
2023-05-21T16:34:01.180Z,9.10
2023-05-21T16:36:29.296Z,11.73
2023-05-21T16:38:57.301Z,10.30
2023-05-21T16:41:25.397Z,9.13
2023-05-21T16:43:55.409Z,8.98
2023-05-21T16:46:23.498Z,9.27
2023-05-21T16:48:51.733Z,9.48
2023-05-21T16:51:19.849Z,8.70
2023-05-21T16:53:47.879Z,10.68
2023-05-21T16:56:16.050Z,8.05
2023-05-21T16:58:44.102Z,11.50
2023-05-21T17:01:13.788Z,10.02
2023-05-21T17:03:43.409Z,9.00
2023-05-21T17:06:11.594Z,8.13
2023-05-21T17:08:39.809Z,7.15
2023-05-21T17:11:07.908Z,7.97
2023-05-21T17:13:35.989Z,6.10
2023-05-21T17:16:04.163Z,8.13
2023-05-21T17:18:33.620Z,8.30
2023-05-21T17:21:01.741Z,8.25
2023-05-21T17:23:29.916Z,9.85
2023-05-21T17:25:57.942Z,8.93
2023-05-21T17:28:26.038Z,8.50
2023-05-21T17:30:54.211Z,8.10
2023-05-21T17:33:22.450Z,7.28
2023-05-21T17:35:51.887Z,9.98
2023-05-21T17:38:20.075Z,8.18
2023-05-21T17:40:48.839Z,7.35
2023-05-21T17:43:16.798Z,7.50
2023-05-21T17:45:44.838Z,9.23
2023-05-21T17:48:13.177Z,8.85
2023-05-21T17:50:41.615Z,8.45
2023-05-21T17:53:11.122Z,8.05
2023-05-21T17:55:39.369Z,8.90
2023-05-21T17:58:09.781Z,10.95
2023-05-21T18:00:37.847Z,9.07
2023-05-21T18:03:06.230Z,9.48
2023-05-21T18:05:34.334Z,8.10
2023-05-21T18:08:02.893Z,10.13
2023-05-21T18:10:32.311Z,8.88
2023-05-21T18:13:03.628Z,8.18
2023-05-21T18:15:33.085Z,9.70
2023-05-21T18:18:01.339Z,9.43
2023-05-21T18:20:30.062Z,8.18
2023-05-21T18:22:58.195Z,6.65
2023-05-21T18:25:26.265Z,7.07
2023-05-21T18:27:55.816Z,9.32
2023-05-21T18:30:23.993Z,6.60
2023-05-21T18:32:52.065Z,7.15
2023-05-21T18:35:20.253Z,7.57
2023-05-21T18:37:48.719Z,7.88
2023-05-21T18:40:17.522Z,8.93
2023-05-21T18:42:45.562Z,7.57
2023-05-21T18:45:16.124Z,6.57
2023-05-21T18:47:44.673Z,6.88
2023-05-21T18:50:14.663Z,7.53
2023-05-21T18:52:42.861Z,5.57
2023-05-21T18:55:11.217Z,6.30
2023-05-21T18:57:39.260Z,8.63
2023-05-21T19:00:09.572Z,11.60
2023-05-21T19:02:39.237Z,7.88
2023-05-21T19:05:08.423Z,7.70
2023-05-21T19:07:36.808Z,8.48
2023-05-21T19:10:05.576Z,9.65
2023-05-21T19:12:35.833Z,10.25
2023-05-21T19:15:04.144Z,9.80
2023-05-21T19:17:33.497Z,8.48
2023-05-21T19:20:05.469Z,8.48
2023-05-21T19:22:33.745Z,8.57
2023-05-21T19:25:02.012Z,10.23
2023-05-21T19:27:30.219Z,9.40
2023-05-21T19:29:58.348Z,10.82
2023-05-21T19:32:26.378Z,10.70
2023-05-21T19:34:54.474Z,8.10
2023-05-21T19:37:23.953Z,9.80
2023-05-21T19:39:52.003Z,10.23
2023-05-21T19:42:25.661Z,9.13
2023-05-21T19:44:53.738Z,8.38
2023-05-21T19:47:21.765Z,9.43
2023-05-21T19:49:49.806Z,9.63
2023-05-21T19:52:18.103Z,9.70
2023-05-21T19:54:47.527Z,8.77
2023-05-21T19:57:15.546Z,9.48
2023-05-21T19:59:43.703Z,11.23
2023-05-21T20:02:15.171Z,9.20
2023-05-21T20:04:43.320Z,10.18
2023-05-21T20:07:11.593Z,10.70
2023-05-21T20:09:40.413Z,9.15
2023-05-21T20:12:10.615Z,8.48
2023-05-21T20:14:38.725Z,11.93
2023-05-21T20:17:07.220Z,9.57
2023-05-21T20:19:37.869Z,9.20
2023-05-21T20:22:06.662Z,8.52
2023-05-21T20:24:35.934Z,9.02
2023-05-21T20:27:04.196Z,9.30
2023-05-21T20:29:34.933Z,20.15
2023-05-21T20:32:06.662Z,35.15
2023-05-21T20:34:58.285Z,27.33
2023-05-21T20:37:36.187Z,14.30
2023-05-21T20:40:07.181Z,15.80
2023-05-21T20:42:36.562Z,9.30
2023-05-21T20:45:22.196Z,13.07
2023-05-21T20:47:50.368Z,10.20
2023-05-21T20:50:21.728Z,16.67
2023-05-21T20:52:52.905Z,12.25
2023-05-21T20:55:21.202Z,13.15
2023-05-21T20:57:49.394Z,10.73
2023-05-21T21:00:21.478Z,10.88
2023-05-21T21:02:49.866Z,11.38
2023-05-21T21:05:20.019Z,10.40
2023-05-21T21:07:48.082Z,11.27
2023-05-21T21:10:16.152Z,13.50
2023-05-21T21:12:46.830Z,11.05
2023-05-21T21:15:15.310Z,9.70
2023-05-21T21:17:44.845Z,13.15
2023-05-21T21:20:16.757Z,10.10
2023-05-21T21:22:44.989Z,10.55
2023-05-21T21:25:14.713Z,10.18
2023-05-21T21:27:43.406Z,10.45
2023-05-21T21:30:12.368Z,11.70
2023-05-21T21:32:45.477Z,10.60
2023-05-21T21:35:24.861Z,11.00
2023-05-21T21:38:00.014Z,11.48
2023-05-21T21:40:29.009Z,10.55
2023-05-21T21:43:04.792Z,10.43
2023-05-21T21:45:37.828Z,13.55
2023-05-21T21:48:07.240Z,10.45
2023-05-21T21:50:37.269Z,15.02
2023-05-21T21:53:07.633Z,14.95
2023-05-21T21:55:38.406Z,17.50
2023-05-21T21:58:07.104Z,13.77
2023-05-21T22:00:43.732Z,17.05
2023-05-21T22:03:16.800Z,13.98
2023-05-21T22:05:47.578Z,16.25
2023-05-21T22:08:16.426Z,13.95
2023-05-21T22:10:45.146Z,14.45
2023-05-21T22:13:17.118Z,13.70
2023-05-21T22:15:49.194Z,12.45
2023-05-21T22:18:28.227Z,11.77
2023-05-21T22:21:09.558Z,12.85
2023-05-21T22:23:38.532Z,14.95
2023-05-21T22:26:07.472Z,13.60
2023-05-21T22:28:36.013Z,13.98
2023-05-21T22:31:04.553Z,13.63
2023-05-21T22:33:33.010Z,13.40
2023-05-21T22:36:07.373Z,13.20
2023-05-21T22:38:36.927Z,12.60
2023-05-21T22:41:08.625Z,14.52
2023-05-21T22:43:42.129Z,11.68
2023-05-21T22:46:21.903Z,17.58
2023-05-21T22:48:56.662Z,14.02
2023-05-21T22:51:28.817Z,15.18
2023-05-21T22:53:59.468Z,12.27
2023-05-21T22:56:30.052Z,17.77
2023-05-21T22:58:59.754Z,16.33
2023-05-21T23:01:31.162Z,14.65
2023-05-21T23:03:59.785Z,14.30
2023-05-21T23:06:30.065Z,13.20
2023-05-21T23:09:00.506Z,12.80
2023-05-21T23:11:29.500Z,13.90
2023-05-21T23:14:11.477Z,14.02
2023-05-21T23:16:45.306Z,14.38
2023-05-21T23:19:17.265Z,14.15
2023-05-21T23:21:47.095Z,13.30
2023-05-21T23:24:16.102Z,13.40
2023-05-21T23:26:44.272Z,13.00
2023-05-21T23:29:12.676Z,13.88
2023-05-21T23:31:41.008Z,15.65
2023-05-21T23:34:09.652Z,13.77
2023-05-21T23:36:37.894Z,15.88
2023-05-21T23:39:07.346Z,13.25
2023-05-21T23:41:37.976Z,12.85
2023-05-21T23:44:08.409Z,14.20
2023-05-21T23:46:36.520Z,13.68
2023-05-21T23:49:06.817Z,14.50
2023-05-21T23:51:34.986Z,15.77
2023-05-21T23:54:03.062Z,14.02
2023-05-21T23:56:32.811Z,14.07
2023-05-21T23:59:00.986Z,13.63
